Terminal Aerodrome Forecast
Issued by NWS

Home | Current Version | Previous Version | Text Only | Print | Product List | Glossary On
Versions: 1 2 3 4 5 6 7 8 9 10 11 12 13 14 15 16 17 18 19 20 21 22 23
000
FTUS41 KBGM 272300
TAFRME
TAF
KRME 272332Z 2800/2824 29005KT P6SM SCT015 BKN040
      TEMPO 2800/2802 2SM -SHSN OVC015
     FM281400 28005KT 1 1/2SM -SN OVC012
     FM281900 26008KT 5SM -SHSN BKN025=

USA.gov is the U.S. government's official web portal to all federal, state and local government web resources and services.